sensor_id;sensor_type;location;lat;lon;timestamp;P1;durP1;ratioP1;P2;durP2;ratioP2
56181;SDS011;51963;46.052;14.544;2023-05-23T00:01:36;15.40;;;10.57;;
56181;SDS011;51963;46.052;14.544;2023-05-23T00:04:02;16.70;;;10.80;;
56181;SDS011;51963;46.052;14.544;2023-05-23T00:06:28;15.73;;;11.63;;
56181;SDS011;51963;46.052;14.544;2023-05-23T00:08:54;15.77;;;10.65;;
56181;SDS011;51963;46.052;14.544;2023-05-23T00:11:21;17.40;;;11.18;;
56181;SDS011;51963;46.052;14.544;2023-05-23T00:13:54;16.77;;;10.20;;
56181;SDS011;51963;46.052;14.544;2023-05-23T00:16:21;14.77;;;11.05;;
56181;SDS011;51963;46.052;14.544;2023-05-23T00:18:47;18.85;;;11.73;;
56181;SDS011;51963;46.052;14.544;2023-05-23T00:21:14;17.27;;;11.77;;
56181;SDS011;51963;46.052;14.544;2023-05-23T00:23:41;18.40;;;12.10;;
56181;SDS011;51963;46.052;14.544;2023-05-23T00:26:08;16.58;;;11.70;;
56181;SDS011;51963;46.052;14.544;2023-05-23T00:28:35;17.23;;;11.97;;
56181;SDS011;51963;46.052;14.544;2023-05-23T00:31:01;18.40;;;12.32;;
56181;SDS011;51963;46.052;14.544;2023-05-23T00:33:27;19.20;;;11.82;;
56181;SDS011;51963;46.052;14.544;2023-05-23T00:35:54;16.83;;;11.60;;
56181;SDS011;51963;46.052;14.544;2023-05-23T00:38:20;20.73;;;13.30;;
56181;SDS011;51963;46.052;14.544;2023-05-23T00:40:46;15.77;;;11.23;;
56181;SDS011;51963;46.052;14.544;2023-05-23T00:43:12;13.98;;;11.02;;
56181;SDS011;51963;46.052;14.544;2023-05-23T00:45:38;15.82;;;11.60;;
56181;SDS011;51963;46.052;14.544;2023-05-23T00:48:04;16.67;;;12.40;;
56181;SDS011;51963;46.052;14.544;2023-05-23T00:50:31;18.70;;;11.85;;
56181;SDS011;51963;46.052;14.544;2023-05-23T00:52:58;16.45;;;11.63;;
56181;SDS011;51963;46.052;14.544;2023-05-23T00:55:25;17.90;;;12.30;;
56181;SDS011;51963;46.052;14.544;2023-05-23T00:57:54;19.98;;;11.68;;
56181;SDS011;51963;46.052;14.544;2023-05-23T01:00:24;17.67;;;12.52;;
56181;SDS011;51963;46.052;14.544;2023-05-23T01:02:51;18.13;;;12.88;;
56181;SDS011;51963;46.052;14.544;2023-05-23T01:05:18;19.38;;;13.02;;
56181;SDS011;51963;46.052;14.544;2023-05-23T01:07:50;20.90;;;12.35;;
56181;SDS011;51963;46.052;14.544;2023-05-23T01:10:18;18.63;;;12.70;;
56181;SDS011;51963;46.052;14.544;2023-05-23T01:19:26;19.77;;;12.83;;
56181;SDS011;51963;46.052;14.544;2023-05-23T01:22:10;20.75;;;13.15;;
56181;SDS011;51963;46.052;14.544;2023-05-23T01:27:36;18.83;;;13.50;;
56181;SDS011;51963;46.052;14.544;2023-05-23T01:30:18;20.83;;;13.52;;
56181;SDS011;51963;46.052;14.544;2023-05-23T01:32:46;18.70;;;13.15;;
56181;SDS011;51963;46.052;14.544;2023-05-23T01:35:13;19.98;;;12.68;;
56181;SDS011;51963;46.052;14.544;2023-05-23T01:37:46;20.88;;;12.93;;
56181;SDS011;51963;46.052;14.544;2023-05-23T01:40:12;19.83;;;13.30;;
56181;SDS011;51963;46.052;14.544;2023-05-23T01:42:38;20.48;;;12.82;;
56181;SDS011;51963;46.052;14.544;2023-05-23T01:45:04;17.95;;;12.02;;
56181;SDS011;51963;46.052;14.544;2023-05-23T01:47:30;17.17;;;12.10;;
56181;SDS011;51963;46.052;14.544;2023-05-23T01:49:57;17.65;;;11.95;;
56181;SDS011;51963;46.052;14.544;2023-05-23T01:52:25;16.42;;;11.50;;
56181;SDS011;51963;46.052;14.544;2023-05-23T01:54:51;20.83;;;12.93;;
56181;SDS011;51963;46.052;14.544;2023-05-23T01:57:17;17.95;;;12.82;;
56181;SDS011;51963;46.052;14.544;2023-05-23T01:59:44;20.25;;;13.77;;
56181;SDS011;51963;46.052;14.544;2023-05-23T02:02:10;20.00;;;13.07;;
56181;SDS011;51963;46.052;14.544;2023-05-23T02:04:36;19.10;;;12.80;;
56181;SDS011;51963;46.052;14.544;2023-05-23T02:07:02;19.35;;;13.57;;
56181;SDS011;51963;46.052;14.544;2023-05-23T02:09:27;19.48;;;13.60;;
56181;SDS011;51963;46.052;14.544;2023-05-23T02:11:53;21.88;;;13.75;;
56181;SDS011;51963;46.052;14.544;2023-05-23T02:14:19;20.98;;;13.18;;
56181;SDS011;51963;46.052;14.544;2023-05-23T02:20:18;20.90;;;12.80;;
56181;SDS011;51963;46.052;14.544;2023-05-23T02:22:46;18.00;;;13.13;;
56181;SDS011;51963;46.052;14.544;2023-05-23T02:25:12;19.58;;;12.65;;
56181;SDS011;51963;46.052;14.544;2023-05-23T02:27:39;18.05;;;12.00;;
56181;SDS011;51963;46.052;14.544;2023-05-23T02:30:05;18.80;;;12.52;;
56181;SDS011;51963;46.052;14.544;2023-05-23T02:32:31;17.27;;;12.70;;
56181;SDS011;51963;46.052;14.544;2023-05-23T02:34:57;20.00;;;12.45;;
56181;SDS011;51963;46.052;14.544;2023-05-23T02:37:23;18.95;;;12.00;;
56181;SDS011;51963;46.052;14.544;2023-05-23T02:39:49;18.90;;;13.18;;
56181;SDS011;51963;46.052;14.544;2023-05-23T02:42:15;20.00;;;13.45;;
56181;SDS011;51963;46.052;14.544;2023-05-23T02:44:41;19.67;;;13.25;;
56181;SDS011;51963;46.052;14.544;2023-05-23T02:47:06;19.50;;;13.07;;
56181;SDS011;51963;46.052;14.544;2023-05-23T02:49:32;19.17;;;13.55;;
56181;SDS011;51963;46.052;14.544;2023-05-23T02:52:00;19.40;;;12.57;;
56181;SDS011;51963;46.052;14.544;2023-05-23T02:54:26;22.85;;;14.10;;
56181;SDS011;51963;46.052;14.544;2023-05-23T02:56:52;22.02;;;14.32;;
56181;SDS011;51963;46.052;14.544;2023-05-23T03:01:46;18.33;;;12.27;;
56181;SDS011;51963;46.052;14.544;2023-05-23T03:04:12;21.40;;;13.18;;
56181;SDS011;51963;46.052;14.544;2023-05-23T03:06:38;20.42;;;13.73;;
56181;SDS011;51963;46.052;14.544;2023-05-23T03:09:06;20.98;;;13.75;;
56181;SDS011;51963;46.052;14.544;2023-05-23T03:11:33;20.00;;;13.93;;
56181;SDS011;51963;46.052;14.544;2023-05-23T03:13:58;19.95;;;13.02;;
56181;SDS011;51963;46.052;14.544;2023-05-23T03:16:24;20.58;;;13.30;;
56181;SDS011;51963;46.052;14.544;2023-05-23T03:18:50;20.25;;;12.98;;
56181;SDS011;51963;46.052;14.544;2023-05-23T03:21:16;17.95;;;12.80;;
56181;SDS011;51963;46.052;14.544;2023-05-23T03:23:42;20.63;;;13.43;;
56181;SDS011;51963;46.052;14.544;2023-05-23T03:26:07;19.58;;;13.27;;
56181;SDS011;51963;46.052;14.544;2023-05-23T03:28:33;21.40;;;14.50;;
56181;SDS011;51963;46.052;14.544;2023-05-23T03:30:59;24.13;;;13.43;;
56181;SDS011;51963;46.052;14.544;2023-05-23T03:33:25;19.25;;;12.80;;
56181;SDS011;51963;46.052;14.544;2023-05-23T03:35:51;22.85;;;13.57;;
56181;SDS011;51963;46.052;14.544;2023-05-23T03:38:17;23.25;;;14.02;;
56181;SDS011;51963;46.052;14.544;2023-05-23T03:40:43;24.33;;;13.73;;
56181;SDS011;51963;46.052;14.544;2023-05-23T03:43:08;23.92;;;14.23;;
56181;SDS011;51963;46.052;14.544;2023-05-23T03:45:37;20.95;;;13.27;;
56181;SDS011;51963;46.052;14.544;2023-05-23T03:48:10;21.67;;;13.63;;
56181;SDS011;51963;46.052;14.544;2023-05-23T03:50:37;21.43;;;13.37;;
56181;SDS011;51963;46.052;14.544;2023-05-23T03:53:04;21.13;;;14.98;;
56181;SDS011;51963;46.052;14.544;2023-05-23T03:55:31;21.20;;;13.90;;
56181;SDS011;51963;46.052;14.544;2023-05-23T03:57:57;24.27;;;15.95;;
56181;SDS011;51963;46.052;14.544;2023-05-23T04:00:23;20.58;;;13.52;;
56181;SDS011;51963;46.052;14.544;2023-05-23T04:02:50;24.67;;;14.98;;
56181;SDS011;51963;46.052;14.544;2023-05-23T04:05:18;25.35;;;14.45;;
56181;SDS011;51963;46.052;14.544;2023-05-23T04:07:45;21.83;;;13.55;;
56181;SDS011;51963;46.052;14.544;2023-05-23T04:10:10;21.50;;;13.65;;
56181;SDS011;51963;46.052;14.544;2023-05-23T04:12:36;20.35;;;13.50;;
56181;SDS011;51963;46.052;14.544;2023-05-23T04:15:07;20.38;;;13.95;;
56181;SDS011;51963;46.052;14.544;2023-05-23T04:17:38;21.15;;;14.02;;
56181;SDS011;51963;46.052;14.544;2023-05-23T04:20:07;20.88;;;14.20;;
56181;SDS011;51963;46.052;14.544;2023-05-23T04:22:37;24.52;;;15.00;;
56181;SDS011;51963;46.052;14.544;2023-05-23T04:25:04;20.52;;;14.18;;
56181;SDS011;51963;46.052;14.544;2023-05-23T04:27:35;19.42;;;13.10;;
56181;SDS011;51963;46.052;14.544;2023-05-23T04:30:05;25.38;;;14.35;;
56181;SDS011;51963;46.052;14.544;2023-05-23T04:32:35;19.83;;;13.88;;
56181;SDS011;51963;46.052;14.544;2023-05-23T04:35:02;23.38;;;13.63;;
56181;SDS011;51963;46.052;14.544;2023-05-23T04:37:29;20.55;;;12.90;;
56181;SDS011;51963;46.052;14.544;2023-05-23T04:39:57;25.30;;;13.40;;
56181;SDS011;51963;46.052;14.544;2023-05-23T04:42:42;21.27;;;12.45;;
56181;SDS011;51963;46.052;14.544;2023-05-23T04:45:25;23.15;;;13.55;;
56181;SDS011;51963;46.052;14.544;2023-05-23T04:48:00;19.83;;;13.32;;
56181;SDS011;51963;46.052;14.544;2023-05-23T04:50:41;18.17;;;12.63;;
56181;SDS011;51963;46.052;14.544;2023-05-23T04:53:10;19.85;;;12.75;;
56181;SDS011;51963;46.052;14.544;2023-05-23T04:55:37;21.05;;;13.05;;
56181;SDS011;51963;46.052;14.544;2023-05-23T04:58:04;17.77;;;12.15;;
56181;SDS011;51963;46.052;14.544;2023-05-23T05:00:30;20.92;;;13.10;;
56181;SDS011;51963;46.052;14.544;2023-05-23T05:02:56;23.85;;;13.75;;
56181;SDS011;51963;46.052;14.544;2023-05-23T05:05:26;18.17;;;13.25;;
56181;SDS011;51963;46.052;14.544;2023-05-23T05:07:52;22.45;;;14.05;;
56181;SDS011;51963;46.052;14.544;2023-05-23T05:10:20;25.33;;;15.02;;
56181;SDS011;51963;46.052;14.544;2023-05-23T05:12:46;27.08;;;14.70;;
56181;SDS011;51963;46.052;14.544;2023-05-23T05:15:16;29.70;;;14.18;;
56181;SDS011;51963;46.052;14.544;2023-05-23T05:17:45;35.35;;;15.85;;
56181;SDS011;51963;46.052;14.544;2023-05-23T05:20:13;30.10;;;14.98;;
56181;SDS011;51963;46.052;14.544;2023-05-23T05:22:39;30.20;;;15.32;;
56181;SDS011;51963;46.052;14.544;2023-05-23T05:25:09;23.90;;;13.95;;
56181;SDS011;51963;46.052;14.544;2023-05-23T05:27:35;21.92;;;14.18;;
56181;SDS011;51963;46.052;14.544;2023-05-23T05:30:06;26.65;;;13.50;;
56181;SDS011;51963;46.052;14.544;2023-05-23T05:32:43;24.13;;;14.50;;
56181;SDS011;51963;46.052;14.544;2023-05-23T05:35:10;25.60;;;14.60;;
56181;SDS011;51963;46.052;14.544;2023-05-23T05:37:39;21.13;;;14.70;;
56181;SDS011;51963;46.052;14.544;2023-05-23T05:40:06;24.88;;;14.82;;
56181;SDS011;51963;46.052;14.544;2023-05-23T05:42:34;21.58;;;14.05;;
56181;SDS011;51963;46.052;14.544;2023-05-23T05:45:00;21.27;;;13.60;;
56181;SDS011;51963;46.052;14.544;2023-05-23T05:47:27;19.20;;;13.23;;
56181;SDS011;51963;46.052;14.544;2023-05-23T05:49:54;24.90;;;14.70;;
56181;SDS011;51963;46.052;14.544;2023-05-23T05:52:20;22.73;;;14.68;;
56181;SDS011;51963;46.052;14.544;2023-05-23T05:54:45;21.10;;;14.93;;
56181;SDS011;51963;46.052;14.544;2023-05-23T05:57:11;27.88;;;14.43;;
56181;SDS011;51963;46.052;14.544;2023-05-23T05:59:37;25.80;;;14.07;;
56181;SDS011;51963;46.052;14.544;2023-05-23T06:02:03;25.23;;;14.73;;
56181;SDS011;51963;46.052;14.544;2023-05-23T06:04:29;21.83;;;14.23;;
56181;SDS011;51963;46.052;14.544;2023-05-23T06:06:56;16.98;;;12.10;;
56181;SDS011;51963;46.052;14.544;2023-05-23T06:09:22;17.75;;;12.50;;
56181;SDS011;51963;46.052;14.544;2023-05-23T06:11:48;19.60;;;13.25;;
56181;SDS011;51963;46.052;14.544;2023-05-23T06:14:14;20.58;;;13.30;;
56181;SDS011;51963;46.052;14.544;2023-05-23T06:16:43;20.50;;;12.80;;
56181;SDS011;51963;46.052;14.544;2023-05-23T06:19:09;20.60;;;13.27;;
56181;SDS011;51963;46.052;14.544;2023-05-23T06:21:36;20.83;;;12.73;;
56181;SDS011;51963;46.052;14.544;2023-05-23T06:24:06;19.13;;;12.23;;
56181;SDS011;51963;46.052;14.544;2023-05-23T06:26:32;19.70;;;12.50;;
56181;SDS011;51963;46.052;14.544;2023-05-23T06:28:58;19.70;;;11.98;;
56181;SDS011;51963;46.052;14.544;2023-05-23T06:31:23;18.98;;;11.52;;
56181;SDS011;51963;46.052;14.544;2023-05-23T06:33:49;21.88;;;12.95;;
56181;SDS011;51963;46.052;14.544;2023-05-23T06:36:16;19.08;;;13.80;;
56181;SDS011;51963;46.052;14.544;2023-05-23T06:38:41;19.80;;;11.65;;
56181;SDS011;51963;46.052;14.544;2023-05-23T06:41:07;22.23;;;13.05;;
56181;SDS011;51963;46.052;14.544;2023-05-23T06:43:34;19.07;;;13.50;;
56181;SDS011;51963;46.052;14.544;2023-05-23T06:46:14;21.33;;;13.18;;
56181;SDS011;51963;46.052;14.544;2023-05-23T06:48:40;20.27;;;13.15;;
56181;SDS011;51963;46.052;14.544;2023-05-23T06:51:06;22.67;;;13.50;;
56181;SDS011;51963;46.052;14.544;2023-05-23T06:53:32;24.17;;;13.02;;
56181;SDS011;51963;46.052;14.544;2023-05-23T06:55:58;20.98;;;13.88;;
56181;SDS011;51963;46.052;14.544;2023-05-23T06:58:27;22.40;;;12.70;;
56181;SDS011;51963;46.052;14.544;2023-05-23T07:00:59;22.23;;;13.93;;
56181;SDS011;51963;46.052;14.544;2023-05-23T07:03:31;22.17;;;12.93;;
56181;SDS011;51963;46.052;14.544;2023-05-23T07:06:02;22.65;;;13.05;;
56181;SDS011;51963;46.052;14.544;2023-05-23T07:08:30;19.38;;;12.63;;
56181;SDS011;51963;46.052;14.544;2023-05-23T07:10:58;23.10;;;13.80;;
56181;SDS011;51963;46.052;14.544;2023-05-23T07:13:37;22.95;;;15.32;;
56181;SDS011;51963;46.052;14.544;2023-05-23T07:16:03;24.55;;;14.85;;
56181;SDS011;51963;46.052;14.544;2023-05-23T07:18:31;21.05;;;13.60;;
56181;SDS011;51963;46.052;14.544;2023-05-23T07:20:57;24.63;;;13.70;;
56181;SDS011;51963;46.052;14.544;2023-05-23T07:23:23;20.05;;;13.18;;
56181;SDS011;51963;46.052;14.544;2023-05-23T07:25:50;21.00;;;12.63;;
56181;SDS011;51963;46.052;14.544;2023-05-23T07:28:24;24.25;;;13.35;;
56181;SDS011;51963;46.052;14.544;2023-05-23T07:30:51;20.13;;;11.00;;
56181;SDS011;51963;46.052;14.544;2023-05-23T07:33:17;20.77;;;10.85;;
56181;SDS011;51963;46.052;14.544;2023-05-23T07:35:44;20.27;;;15.37;;
56181;SDS011;51963;46.052;14.544;2023-05-23T07:38:10;20.15;;;12.18;;
56181;SDS011;51963;46.052;14.544;2023-05-23T07:40:36;19.20;;;11.80;;
56181;SDS011;51963;46.052;14.544;2023-05-23T07:43:04;24.75;;;12.60;;
56181;SDS011;51963;46.052;14.544;2023-05-23T07:45:30;20.10;;;12.10;;
56181;SDS011;51963;46.052;14.544;2023-05-23T07:47:57;23.07;;;10.87;;
56181;SDS011;51963;46.052;14.544;2023-05-23T07:50:23;16.95;;;11.52;;
56181;SDS011;51963;46.052;14.544;2023-05-23T07:52:50;17.67;;;10.20;;
56181;SDS011;51963;46.052;14.544;2023-05-23T07:55:21;18.77;;;10.77;;
56181;SDS011;51963;46.052;14.544;2023-05-23T07:57:46;16.83;;;10.80;;
56181;SDS011;51963;46.052;14.544;2023-05-23T08:00:12;12.27;;;10.05;;
56181;SDS011;51963;46.052;14.544;2023-05-23T08:02:41;14.73;;;8.55;;
56181;SDS011;51963;46.052;14.544;2023-05-23T08:05:14;12.88;;;8.65;;
56181;SDS011;51963;46.052;14.544;2023-05-23T08:07:40;15.20;;;9.55;;
56181;SDS011;51963;46.052;14.544;2023-05-23T08:10:09;14.82;;;8.95;;
56181;SDS011;51963;46.052;14.544;2023-05-23T08:12:37;16.88;;;10.07;;
56181;SDS011;51963;46.052;14.544;2023-05-23T08:15:11;19.30;;;10.38;;
56181;SDS011;51963;46.052;14.544;2023-05-23T08:17:41;17.55;;;9.25;;
56181;SDS011;51963;46.052;14.544;2023-05-23T08:20:07;12.13;;;8.75;;
56181;SDS011;51963;46.052;14.544;2023-05-23T08:22:34;18.80;;;8.93;;
56181;SDS011;51963;46.052;14.544;2023-05-23T08:25:01;17.05;;;10.43;;
56181;SDS011;51963;46.052;14.544;2023-05-23T08:27:29;13.13;;;9.48;;
56181;SDS011;51963;46.052;14.544;2023-05-23T08:29:59;18.17;;;9.35;;
56181;SDS011;51963;46.052;14.544;2023-05-23T08:32:25;15.98;;;9.40;;
56181;SDS011;51963;46.052;14.544;2023-05-23T08:34:51;13.68;;;8.77;;
56181;SDS011;51963;46.052;14.544;2023-05-23T08:37:17;14.52;;;8.80;;
56181;SDS011;51963;46.052;14.544;2023-05-23T08:39:43;18.90;;;8.65;;
56181;SDS011;51963;46.052;14.544;2023-05-23T08:42:24;14.55;;;8.70;;
56181;SDS011;51963;46.052;14.544;2023-05-23T08:44:52;18.95;;;9.43;;
56181;SDS011;51963;46.052;14.544;2023-05-23T08:49:54;17.23;;;10.15;;
56181;SDS011;51963;46.052;14.544;2023-05-23T08:52:22;14.15;;;9.10;;
56181;SDS011;51963;46.052;14.544;2023-05-23T08:54:52;15.07;;;8.57;;
56181;SDS011;51963;46.052;14.544;2023-05-23T08:57:18;12.77;;;8.68;;
56181;SDS011;51963;46.052;14.544;2023-05-23T08:59:50;15.60;;;8.43;;
56181;SDS011;51963;46.052;14.544;2023-05-23T09:02:17;15.88;;;9.30;;
56181;SDS011;51963;46.052;14.544;2023-05-23T09:04:44;13.30;;;9.27;;
56181;SDS011;51963;46.052;14.544;2023-05-23T09:07:14;15.75;;;8.32;;
56181;SDS011;51963;46.052;14.544;2023-05-23T09:09:42;17.10;;;8.52;;
56181;SDS011;51963;46.052;14.544;2023-05-23T09:12:10;16.98;;;8.60;;
56181;SDS011;51963;46.052;14.544;2023-05-23T09:14:38;12.05;;;8.43;;
56181;SDS011;51963;46.052;14.544;2023-05-23T09:17:08;16.02;;;8.50;;
56181;SDS011;51963;46.052;14.544;2023-05-23T09:19:34;14.80;;;8.05;;
56181;SDS011;51963;46.052;14.544;2023-05-23T09:22:19;14.70;;;7.53;;
56181;SDS011;51963;46.052;14.544;2023-05-23T09:24:57;11.43;;;7.35;;
56181;SDS011;51963;46.052;14.544;2023-05-23T09:27:23;12.90;;;7.22;;
56181;SDS011;51963;46.052;14.544;2023-05-23T09:29:49;12.32;;;7.72;;
56181;SDS011;51963;46.052;14.544;2023-05-23T09:32:19;10.23;;;7.03;;
56181;SDS011;51963;46.052;14.544;2023-05-23T09:34:55;12.55;;;7.28;;
56181;SDS011;51963;46.052;14.544;2023-05-23T09:37:33;10.63;;;6.63;;
56181;SDS011;51963;46.052;14.544;2023-05-23T09:40:02;10.00;;;7.10;;
56181;SDS011;51963;46.052;14.544;2023-05-23T09:42:43;9.35;;;7.15;;
56181;SDS011;51963;46.052;14.544;2023-05-23T09:45:10;13.30;;;7.55;;
56181;SDS011;51963;46.052;14.544;2023-05-23T09:47:37;11.43;;;6.82;;
56181;SDS011;51963;46.052;14.544;2023-05-23T09:50:02;10.93;;;6.88;;
56181;SDS011;51963;46.052;14.544;2023-05-23T09:52:36;14.35;;;6.72;;
56181;SDS011;51963;46.052;14.544;2023-05-23T09:55:02;11.93;;;7.47;;
56181;SDS011;51963;46.052;14.544;2023-05-23T09:57:28;12.45;;;6.85;;
56181;SDS011;51963;46.052;14.544;2023-05-23T09:59:58;11.90;;;6.97;;
56181;SDS011;51963;46.052;14.544;2023-05-23T10:05:45;10.80;;;6.43;;
56181;SDS011;51963;46.052;14.544;2023-05-23T10:08:20;9.57;;;6.50;;
56181;SDS011;51963;46.052;14.544;2023-05-23T10:13:24;16.95;;;6.85;;
56181;SDS011;51963;46.052;14.544;2023-05-23T10:15:53;12.30;;;7.15;;
56181;SDS011;51963;46.052;14.544;2023-05-23T10:18:25;10.75;;;6.30;;
56181;SDS011;51963;46.052;14.544;2023-05-23T10:20:54;12.27;;;6.90;;
56181;SDS011;51963;46.052;14.544;2023-05-23T10:23:26;9.55;;;6.95;;
56181;SDS011;51963;46.052;14.544;2023-05-23T10:25:54;12.45;;;7.18;;
56181;SDS011;51963;46.052;14.544;2023-05-23T10:28:19;11.55;;;6.78;;
56181;SDS011;51963;46.052;14.544;2023-05-23T10:30:46;9.07;;;6.30;;
56181;SDS011;51963;46.052;14.544;2023-05-23T10:33:13;9.73;;;6.40;;
56181;SDS011;51963;46.052;14.544;2023-05-23T10:46:12;9.95;;;6.80;;
56181;SDS011;51963;46.052;14.544;2023-05-23T10:48:42;11.52;;;6.13;;
56181;SDS011;51963;46.052;14.544;2023-05-23T10:51:12;9.50;;;5.93;;
56181;SDS011;51963;46.052;14.544;2023-05-23T10:53:40;6.85;;;5.32;;
56181;SDS011;51963;46.052;14.544;2023-05-23T10:56:08;6.50;;;5.68;;
56181;SDS011;51963;46.052;14.544;2023-05-23T10:58:36;7.35;;;5.32;;
56181;SDS011;51963;46.052;14.544;2023-05-23T11:03:47;9.55;;;6.07;;
56181;SDS011;51963;46.052;14.544;2023-05-23T11:09:12;11.32;;;5.85;;
56181;SDS011;51963;46.052;14.544;2023-05-23T11:15:17;11.30;;;6.10;;
56181;SDS011;51963;46.052;14.544;2023-05-23T11:17:16;9.88;;;5.93;;
56181;SDS011;51963;46.052;14.544;2023-05-23T11:22:32;9.25;;;5.55;;
56181;SDS011;51963;46.052;14.544;2023-05-23T11:24:59;10.40;;;4.82;;
56181;SDS011;51963;46.052;14.544;2023-05-23T11:27:27;6.03;;;4.10;;
56181;SDS011;51963;46.052;14.544;2023-05-23T11:32:31;4.93;;;3.50;;
56181;SDS011;51963;46.052;14.544;2023-05-23T11:34:58;4.72;;;3.60;;
56181;SDS011;51963;46.052;14.544;2023-05-23T11:37:26;3.90;;;3.33;;
56181;SDS011;51963;46.052;14.544;2023-05-23T11:39:52;6.22;;;3.80;;
56181;SDS011;51963;46.052;14.544;2023-05-23T11:42:17;4.10;;;3.70;;
56181;SDS011;51963;46.052;14.544;2023-05-23T11:44:43;3.37;;;3.07;;
56181;SDS011;51963;46.052;14.544;2023-05-23T11:47:12;7.22;;;3.83;;
56181;SDS011;51963;46.052;14.544;2023-05-23T11:49:38;5.03;;;3.60;;
56181;SDS011;51963;46.052;14.544;2023-05-23T11:52:05;4.43;;;3.60;;
56181;SDS011;51963;46.052;14.544;2023-05-23T11:54:31;3.45;;;3.15;;
56181;SDS011;51963;46.052;14.544;2023-05-23T11:56:58;6.43;;;3.22;;
56181;SDS011;51963;46.052;14.544;2023-05-23T11:59:24;5.83;;;3.40;;
56181;SDS011;51963;46.052;14.544;2023-05-23T12:01:51;4.38;;;3.15;;
56181;SDS011;51963;46.052;14.544;2023-05-23T12:04:17;7.05;;;3.40;;
56181;SDS011;51963;46.052;14.544;2023-05-23T12:06:52;3.73;;;3.30;;
56181;SDS011;51963;46.052;14.544;2023-05-23T12:09:19;4.57;;;3.77;;
56181;SDS011;51963;46.052;14.544;2023-05-23T12:11:48;4.75;;;3.42;;
56181;SDS011;51963;46.052;14.544;2023-05-23T12:14:15;4.78;;;3.03;;
56181;SDS011;51963;46.052;14.544;2023-05-23T12:16:43;4.35;;;3.10;;
56181;SDS011;51963;46.052;14.544;2023-05-23T12:19:12;2.88;;;2.60;;
56181;SDS011;51963;46.052;14.544;2023-05-23T12:21:40;2.60;;;2.33;;
56181;SDS011;51963;46.052;14.544;2023-05-23T12:24:21;4.32;;;2.70;;
56181;SDS011;51963;46.052;14.544;2023-05-23T12:26:57;3.97;;;2.92;;
56181;SDS011;51963;46.052;14.544;2023-05-23T12:29:28;4.35;;;2.58;;
56181;SDS011;51963;46.052;14.544;2023-05-23T12:31:58;3.75;;;2.40;;
56181;SDS011;51963;46.052;14.544;2023-05-23T12:34:26;3.05;;;2.78;;
56181;SDS011;51963;46.052;14.544;2023-05-23T12:36:56;2.58;;;2.38;;
56181;SDS011;51963;46.052;14.544;2023-05-23T12:39:28;5.85;;;2.63;;
56181;SDS011;51963;46.052;14.544;2023-05-23T12:42:07;3.55;;;2.90;;
56181;SDS011;51963;46.052;14.544;2023-05-23T12:44:34;4.30;;;2.42;;
56181;SDS011;51963;46.052;14.544;2023-05-23T12:47:00;3.67;;;2.60;;
56181;SDS011;51963;46.052;14.544;2023-05-23T12:49:27;4.47;;;2.97;;
56181;SDS011;51963;46.052;14.544;2023-05-23T12:51:53;3.20;;;2.90;;
56181;SDS011;51963;46.052;14.544;2023-05-23T12:54:20;9.13;;;6.95;;
56181;SDS011;51963;46.052;14.544;2023-05-23T12:56:45;7.17;;;3.33;;
56181;SDS011;51963;46.052;14.544;2023-05-23T12:59:14;7.53;;;3.33;;
56181;SDS011;51963;46.052;14.544;2023-05-23T13:01:40;4.63;;;2.80;;
56181;SDS011;51963;46.052;14.544;2023-05-23T13:04:06;3.20;;;2.90;;
56181;SDS011;51963;46.052;14.544;2023-05-23T13:06:32;3.73;;;2.70;;
56181;SDS011;51963;46.052;14.544;2023-05-23T13:08:57;3.10;;;2.80;;
56181;SDS011;51963;46.052;14.544;2023-05-23T13:11:23;4.83;;;3.50;;
56181;SDS011;51963;46.052;14.544;2023-05-23T13:13:49;6.67;;;3.40;;
56181;SDS011;51963;46.052;14.544;2023-05-23T13:16:16;6.57;;;3.35;;
56181;SDS011;51963;46.052;14.544;2023-05-23T13:18:41;4.80;;;3.33;;
56181;SDS011;51963;46.052;14.544;2023-05-23T13:21:07;5.53;;;3.73;;
56181;SDS011;51963;46.052;14.544;2023-05-23T13:23:33;10.73;;;7.13;;
56181;SDS011;51963;46.052;14.544;2023-05-23T13:26:00;4.15;;;3.75;;
56181;SDS011;51963;46.052;14.544;2023-05-23T13:28:26;6.03;;;4.10;;
56181;SDS011;51963;46.052;14.544;2023-05-23T13:30:53;3.78;;;3.47;;
56181;SDS011;51963;46.052;14.544;2023-05-23T13:33:18;6.27;;;3.60;;
56181;SDS011;51963;46.052;14.544;2023-05-23T13:35:47;7.75;;;3.67;;
56181;SDS011;51963;46.052;14.544;2023-05-23T13:38:16;6.80;;;3.38;;
56181;SDS011;51963;46.052;14.544;2023-05-23T13:40:44;6.22;;;3.80;;
56181;SDS011;51963;46.052;14.544;2023-05-23T13:43:10;6.22;;;4.03;;
56181;SDS011;51963;46.052;14.544;2023-05-23T13:45:36;6.43;;;4.32;;
56181;SDS011;51963;46.052;14.544;2023-05-23T13:48:02;9.65;;;4.30;;
56181;SDS011;51963;46.052;14.544;2023-05-23T13:50:27;6.68;;;3.50;;
56181;SDS011;51963;46.052;14.544;2023-05-23T13:52:53;4.72;;;3.58;;
56181;SDS011;51963;46.052;14.544;2023-05-23T13:55:19;5.97;;;3.83;;
56181;SDS011;51963;46.052;14.544;2023-05-23T13:57:45;6.50;;;3.70;;
56181;SDS011;51963;46.052;14.544;2023-05-23T14:00:11;3.80;;;3.20;;
56181;SDS011;51963;46.052;14.544;2023-05-23T14:02:40;5.90;;;3.30;;
56181;SDS011;51963;46.052;14.544;2023-05-23T14:05:06;4.03;;;3.10;;
56181;SDS011;51963;46.052;14.544;2023-05-23T14:07:32;5.32;;;3.30;;
56181;SDS011;51963;46.052;14.544;2023-05-23T14:09:58;7.78;;;3.70;;
56181;SDS011;51963;46.052;14.544;2023-05-23T14:12:24;7.65;;;3.20;;
56181;SDS011;51963;46.052;14.544;2023-05-23T14:14:50;5.75;;;3.45;;
56181;SDS011;51963;46.052;14.544;2023-05-23T14:17:16;5.15;;;3.50;;
56181;SDS011;51963;46.052;14.544;2023-05-23T14:19:42;10.25;;;4.13;;
56181;SDS011;51963;46.052;14.544;2023-05-23T14:22:11;13.32;;;4.60;;
56181;SDS011;51963;46.052;14.544;2023-05-23T14:24:37;7.15;;;5.15;;
56181;SDS011;51963;46.052;14.544;2023-05-23T14:27:02;8.68;;;5.15;;
56181;SDS011;51963;46.052;14.544;2023-05-23T14:29:29;8.50;;;4.57;;
56181;SDS011;51963;46.052;14.544;2023-05-23T14:31:54;13.80;;;8.50;;
56181;SDS011;51963;46.052;14.544;2023-05-23T14:34:21;9.45;;;5.20;;
56181;SDS011;51963;46.052;14.544;2023-05-23T14:36:46;10.40;;;5.68;;
56181;SDS011;51963;46.052;14.544;2023-05-23T14:39:12;9.32;;;6.35;;
56181;SDS011;51963;46.052;14.544;2023-05-23T14:41:38;12.25;;;6.05;;
56181;SDS011;51963;46.052;14.544;2023-05-23T14:44:04;15.43;;;6.40;;
56181;SDS011;51963;46.052;14.544;2023-05-23T14:46:30;15.57;;;7.20;;
56181;SDS011;51963;46.052;14.544;2023-05-23T14:48:56;13.57;;;7.25;;
56181;SDS011;51963;46.052;14.544;2023-05-23T14:51:22;18.00;;;7.55;;
56181;SDS011;51963;46.052;14.544;2023-05-23T14:54:06;11.50;;;6.68;;
56181;SDS011;51963;46.052;14.544;2023-05-23T14:56:44;14.23;;;7.30;;
56181;SDS011;51963;46.052;14.544;2023-05-23T14:59:11;11.50;;;7.15;;
56181;SDS011;51963;46.052;14.544;2023-05-23T15:01:41;11.65;;;7.25;;
56181;SDS011;51963;46.052;14.544;2023-05-23T15:04:07;13.90;;;7.05;;
56181;SDS011;51963;46.052;14.544;2023-05-23T15:06:33;9.75;;;6.60;;
56181;SDS011;51963;46.052;14.544;2023-05-23T15:08:59;8.57;;;6.05;;
56181;SDS011;51963;46.052;14.544;2023-05-23T15:11:25;10.48;;;7.05;;